Time;durP1;ratioP1;P1;durP2;ratioP2;P2;SDS_P1;SDS_P2;PMS_P1;PMS_P2;Temp;Humidity;BMP_temperature;BMP_pressure;BME280_temperature;BME280_humidity;BME280_pressure;Samples;Min_cycle;Max_cycle;Signal;HPM_P1;HPM_P2
2022/01/25 00:08:20;;;;;;;314.73;61.95;;;;;;;-4.53;60.23;101223.41;337682;29;1362;-72
2022/01/25 00:08:54;;;;;;;317.75;63.42;;;;;;;-4.65;60.02;101225.41;340553;28;1318;-71
2022/01/25 00:09:15;;;;;;;320.85;63.88;;;;;;;-4.62;60.66;101217.00;339928;28;1475;-71
2022/01/25 00:10:38;;;;;;;317.83;63.25;;;;;;;-4.61;59.86;101218.75;340568;28;1367;-74
2022/01/25 00:25:03;;;;;;;326.08;66.35;;;;;;;-4.81;61.10;101233.19;340232;28;1353;-72
2022/01/25 00:26:18;;;;;;;326.33;64.60;;;;;;;-4.93;61.52;101217.28;338026;29;790;-72
2022/01/25 00:26:41;;;;;;;326.98;66.32;;;;;;;-4.90;61.88;101219.97;341730;28;1355;-73
2022/01/25 00:28:03;;;;;;;326.98;66.28;;;;;;;-4.87;62.61;101217.56;337825;29;965;-72
2022/01/25 00:28:28;;;;;;;325.92;64.70;;;;;;;-4.86;62.48;101215.09;341897;28;1517;-72
2022/01/25 00:28:44;;;;;;;329.17;64.78;;;;;;;-4.85;62.01;101221.06;340230;28;1303;-71
2022/01/25 00:29:14;;;;;;;332.52;66.10;;;;;;;-4.87;61.75;101220.13;340305;28;1484;-71
2022/01/25 00:29:35;;;;;;;323.23;66.53;;;;;;;-4.90;61.68;101218.31;339410;28;1454;-71
2022/01/25 00:29:56;;;;;;;323.88;66.32;;;;;;;-4.90;62.33;101220.84;339107;29;1491;-73
2022/01/25 00:30:27;;;;;;;323.16;66.08;;;;;;;-4.91;61.54;101221.66;339168;29;913;-71
2022/01/25 00:30:58;;;;;;;322.60;65.40;;;;;;;-4.86;61.94;101227.84;338160;28;1596;-72
2022/01/25 00:31:17;;;;;;;326.55;65.82;;;;;;;-4.82;61.67;101226.31;336756;29;1425;-73
2022/01/25 00:31:27;;;;;;;323.73;64.93;;;;;;;-4.84;61.39;101212.63;339319;28;1436;-72
2022/01/25 00:31:38;;;;;;;322.40;64.43;;;;;;;-4.85;61.90;101221.94;341881;28;1412;-72
2022/01/25 00:31:49;;;;;;;320.52;63.65;;;;;;;-4.83;61.79;101224.56;340406;28;1302;-72
2022/01/25 00:31:59;;;;;;;321.83;64.75;;;;;;;-4.84;61.94;101227.94;336689;29;1523;-72
2022/01/25 00:32:10;;;;;;;323.73;66.40;;;;;;;-4.89;61.26;101217.50;339838;28;1489;-71
2022/01/25 00:32:20;;;;;;;325.00;67.03;;;;;;;-4.92;61.73;101219.03;340862;28;1080;-71
2022/01/25 00:32:31;;;;;;;324.88;66.03;;;;;;;-4.91;61.92;101218.22;338719;29;1508;-71
2022/01/25 00:32:41;;;;;;;324.33;65.43;;;;;;;-4.89;61.47;101224.28;343018;28;1477;-72
2022/01/25 00:32:52;;;;;;;322.80;65.47;;;;;;;-4.90;61.68;101222.53;340481;28;1231;-71
2022/01/25 00:33:02;;;;;;;323.07;66.47;;;;;;;-4.90;61.69;101217.44;336813;29;798;-71
2022/01/25 00:33:12;;;;;;;321.63;66.32;;;;;;;-4.87;61.59;101226.09;340955;28;1767;-71
2022/01/25 00:33:23;;;;;;;322.57;65.77;;;;;;;-4.86;61.34;101219.31;340642;28;1517;-71
2022/01/25 00:33:33;;;;;;;321.23;65.23;;;;;;;-4.88;61.61;101229.47;341861;28;1219;-71
2022/01/25 00:33:48;;;;;;;324.10;65.33;;;;;;;-4.91;61.97;101221.66;339101;28;1428;-71
2022/01/25 00:33:58;;;;;;;326.02;65.55;;;;;;;-4.92;61.13;101219.03;340440;28;1534;-71
2022/01/25 00:34:09;;;;;;;327.42;65.80;;;;;;;-4.92;61.96;101219.03;338950;29;1270;-72
2022/01/25 00:34:19;;;;;;;326.07;66.30;;;;;;;-4.93;61.38;101223.25;340513;28;1328;-71
2022/01/25 00:34:30;;;;;;;323.73;65.28;;;;;;;-4.92;61.98;101221.59;340580;28;1419;-71
2022/01/25 00:34:40;;;;;;;321.97;64.90;;;;;;;-4.93;61.95;101217.28;340399;28;1495;-71
2022/01/25 00:34:50;;;;;;;322.50;65.28;;;;;;;-4.94;61.73;101220.63;339418;29;1193;-71
2022/01/25 00:35:01;;;;;;;322.97;65.57;;;;;;;-4.93;62.05;101217.28;340414;28;1545;-71
2022/01/25 00:35:11;;;;;;;322.85;66.00;;;;;;;-4.95;61.37;101222.31;340000;28;1498;-71
2022/01/25 00:35:22;;;;;;;322.53;65.87;;;;;;;-4.93;61.41;101222.38;339510;28;1372;-71
2022/01/25 00:35:32;;;;;;;321.23;65.25;;;;;;;-4.90;61.74;101222.53;340324;28;1420;-70
2022/01/25 00:35:43;;;;;;;321.17;64.67;;;;;;;-4.92;61.79;101219.91;339846;28;1361;-71
2022/01/25 00:35:53;;;;;;;320.95;64.68;;;;;;;-4.91;61.95;101220.78;339231;29;1222;-71
2022/01/25 00:36:05;;;;;;;322.77;65.93;;;;;;;-4.90;61.46;101227.63;341650;28;1562;-71
2022/01/25 00:36:17;;;;;;;323.33;65.85;;;;;;;-4.94;61.27;101223.19;341646;28;1442;-71
2022/01/25 00:36:27;;;;;;;323.35;65.55;;;;;;;-4.94;61.20;101225.75;339992;28;1341;-71
2022/01/25 00:36:38;;;;;;;324.95;66.20;;;;;;;-4.95;61.27;101221.44;340562;28;1231;-71
2022/01/25 00:36:48;;;;;;;323.17;66.43;;;;;;;-4.95;61.97;101224.00;342064;28;1441;-71
2022/01/25 00:36:58;;;;;;;321.63;65.43;;;;;;;-4.96;61.55;101222.25;341674;28;1450;-72
2022/01/25 00:37:09;;;;;;;318.67;63.83;;;;;;;-4.97;62.02;101220.50;339271;28;1487;-72
2022/01/25 00:37:20;;;;;;;320.27;63.65;;;;;;;-4.95;61.42;101222.31;342972;28;1328;-71
2022/01/25 00:37:30;;;;;;;322.65;64.82;;;;;;;-4.95;61.45;101224.00;343210;28;1442;-71
2022/01/25 00:37:41;;;;;;;322.60;64.97;;;;;;;-4.94;61.34;101221.50;340181;28;1289;-71
2022/01/25 00:37:51;;;;;;;322.85;64.72;;;;;;;-4.94;61.91;101221.50;339277;29;826;-71
2022/01/25 00:38:01;;;;;;;321.30;64.37;;;;;;;-4.93;61.41;101222.38;340735;28;1440;-72
2022/01/25 00:38:12;;;;;;;322.08;65.35;;;;;;;-4.93;61.24;101219.84;341615;28;1269;-71
2022/01/25 00:38:22;;;;;;;321.03;65.33;;;;;;;-4.92;61.12;101226.69;340629;28;1280;-71
2022/01/25 00:38:33;;;;;;;320.25;65.70;;;;;;;-4.90;61.37;101225.09;338822;28;1275;-72
2022/01/25 00:38:43;;;;;;;320.33;65.72;;;;;;;-4.91;61.80;101224.22;339161;29;1447;-71
2022/01/25 00:38:54;;;;;;;319.63;65.63;;;;;;;-4.89;61.52;101230.25;338436;28;1223;-71
2022/01/25 00:39:05;;;;;;;321.35;65.93;;;;;;;-4.88;60.93;101223.47;340466;28;1298;-71
2022/01/25 00:39:15;;;;;;;321.55;65.60;;;;;;;-4.87;61.38;101222.69;337659;29;1469;-71
2022/01/25 00:39:25;;;;;;;323.37;65.97;;;;;;;-4.89;61.75;101226.84;337719;29;1477;-72
2022/01/25 00:39:40;;;;;;;322.27;64.88;;;;;;;-4.92;61.15;101217.34;337899;29;1092;-72
2022/01/25 00:39:51;;;;;;;322.94;65.02;;;;;;;-4.88;61.59;101229.47;340634;28;742;-71
2022/01/25 00:40:03;;;;;;;322.47;65.57;;;;;;;-4.87;61.68;101222.69;340087;28;1452;-71
2022/01/25 00:40:14;;;;;;;319.55;64.32;;;;;;;-4.87;60.87;101227.78;340513;28;1329;-71
2022/01/25 00:40:24;;;;;;;319.47;64.37;;;;;;;-4.87;61.39;101220.13;339085;28;1200;-71
2022/01/25 00:40:35;;;;;;;317.67;64.03;;;;;;;-4.89;61.25;101226.84;339044;28;1641;-71
2022/01/25 00:40:45;;;;;;;316.63;63.33;;;;;;;-4.88;61.22;101226.03;338950;28;1305;-71
2022/01/25 00:40:55;;;;;;;316.98;62.88;;;;;;;-4.89;61.68;101226.84;337891;28;1278;-71
2022/01/25 00:41:06;;;;;;;319.83;64.73;;;;;;;-4.89;61.35;101225.16;336721;29;1985;-71
2022/01/25 00:41:16;;;;;;;321.85;65.68;;;;;;;-4.89;61.29;101224.28;339033;29;1079;-71
2022/01/25 00:41:27;;;;;;;322.00;65.70;;;;;;;-4.91;61.69;101224.22;341996;28;1527;-71
2022/01/25 00:41:37;;;;;;;323.03;64.70;;;;;;;-4.89;60.88;101230.25;341851;28;905;-73
2022/01/25 00:41:48;;;;;;;322.33;64.43;;;;;;;-4.90;61.20;101218.31;341335;28;1440;-72
2022/01/25 00:41:58;;;;;;;321.13;64.80;;;;;;;-4.91;61.24;101229.31;341515;28;1420;-72
2022/01/25 00:42:09;;;;;;;320.95;65.53;;;;;;;-4.88;61.57;101218.38;339350;28;1663;-72
2022/01/25 00:42:19;;;;;;;320.33;65.83;;;;;;;-4.89;61.28;101219.19;337830;29;1272;-71
2022/01/25 00:42:29;;;;;;;321.27;65.32;;;;;;;-4.89;61.80;101219.19;339281;28;1483;-71
2022/01/25 00:42:40;;;;;;;320.57;64.27;;;;;;;-4.91;61.42;101225.88;337610;29;1205;-71
2022/01/25 00:42:50;;;;;;;320.13;64.43;;;;;;;-4.91;61.81;101221.66;339057;28;1471;-71
2022/01/25 00:43:01;;;;;;;319.43;65.07;;;;;;;-4.91;61.42;101225.88;340403;28;1384;-71
2022/01/25 00:43:11;;;;;;;319.73;66.05;;;;;;;-4.91;60.99;101231.00;341928;28;1307;-70
2022/01/25 00:43:23;;;;;;;321.50;66.57;;;;;;;-4.92;61.39;101229.25;341839;28;845;-71
2022/01/25 00:43:34;;;;;;;322.67;66.57;;;;;;;-4.93;61.86;101228.38;339271;28;1535;-71
2022/01/25 00:43:44;;;;;;;322.70;66.00;;;;;;;-4.95;61.80;101224.88;338990;28;1259;-72
2022/01/25 00:43:56;;;;;;;321.75;66.22;;;;;;;-4.95;61.64;101224.00;341270;28;1313;-71
2022/01/25 00:44:06;;;;;;;320.48;66.50;;;;;;;-4.98;61.85;101228.94;339101;28;1384;-71
2022/01/25 00:44:17;;;;;;;321.43;65.93;;;;;;;-4.96;61.32;101229.91;340427;28;1455;-71
2022/01/25 00:44:31;;;;;;;322.75;65.97;;;;;;;-4.98;61.34;101224.72;339198;28;1481;-72
2022/01/25 00:44:46;;;;;;;323.20;65.88;;;;;;;-4.98;61.55;101224.72;340438;28;908;-71
2022/01/25 00:44:56;;;;;;;323.35;65.68;;;;;;;-4.97;61.59;101225.59;341851;28;1311;-71
2022/01/25 00:45:10;;;;;;;324.53;64.97;;;;;;;-4.94;62.16;101230.84;340505;28;1573;-71
2022/01/25 00:45:21;;;;;;;325.35;64.45;;;;;;;-4.95;62.20;101218.88;340699;28;1614;-71
2022/01/25 00:45:32;;;;;;;321.38;63.63;;;;;;;-4.96;62.09;101227.34;339631;28;1504;-71
2022/01/25 00:45:42;;;;;;;317.90;62.67;;;;;;;-4.99;61.83;101219.53;340624;28;845;-71
2022/01/25 00:45:57;;;;;;;320.17;63.22;;;;;;;-4.99;62.00;101222.97;339380;28;1244;-71
2022/01/25 00:46:10;;;;;;;324.35;63.78;;;;;;;-5.00;62.08;101222.91;341790;28;1464;-71
2022/01/25 00:46:22;;;;;;;325.17;65.03;;;;;;;-4.99;61.36;101225.53;342057;28;1331;-71
2022/01/25 00:46:32;;;;;;;322.63;64.22;;;;;;;-4.99;62.27;101228.06;341943;28;1447;-71
2022/01/25 00:46:43;;;;;;;321.93;64.77;;;;;;;-4.99;61.33;101217.00;340437;28;1475;-71
2022/01/25 00:46:53;;;;;;;321.15;63.90;;;;;;;-5.00;61.34;101221.22;340864;28;940;-71
2022/01/25 00:47:06;;;;;;;323.93;64.80;;;;;;;-5.03;61.30;101226.19;339097;28;1541;-73
2022/01/25 00:47:16;;;;;;;324.05;63.67;;;;;;;-5.01;61.60;101229.69;341518;28;1327;-72
2022/01/25 00:47:27;;;;;;;324.50;63.95;;;;;;;-5.03;61.33;101224.50;341819;28;1542;-72
2022/01/25 00:47:40;;;;;;;324.90;63.83;;;;;;;-5.04;61.97;101225.31;341645;28;938;-72
2022/01/25 00:47:51;;;;;;;324.48;64.13;;;;;;;-5.02;61.95;101226.25;338647;28;1408;-72
2022/01/25 00:48:03;;;;;;;323.48;64.03;;;;;;;-5.00;62.06;101225.44;339297;29;1344;-72
2022/01/25 00:48:19;;;;;;;325.42;64.00;;;;;;;-5.02;61.37;101223.69;339084;29;1492;-72
2022/01/25 00:48:52;;;;;;;318.80;63.22;;;;;;;-5.03;61.44;101221.94;338775;29;1281;-72
2022/01/25 00:49:03;;;;;;;320.30;64.60;;;;;;;-5.04;62.13;101224.44;335264;29;1160;-72
2022/01/25 00:49:24;;;;;;;320.80;64.72;;;;;;;-5.05;62.10;101218.44;340146;28;1439;-72
2022/01/25 00:49:38;;;;;;;321.80;64.80;;;;;;;-5.04;61.99;101225.31;340120;28;1262;-72
2022/01/25 00:49:52;;;;;;;319.98;63.90;;;;;;;-5.05;62.08;101221.00;339510;28;1439;-72
2022/01/25 00:50:02;;;;;;;317.08;63.08;;;;;;;-5.04;61.49;101222.75;340541;28;1494;-73
2022/01/25 00:50:15;;;;;;;316.90;63.57;;;;;;;-5.03;61.82;101224.50;341885;28;1546;-71
2022/01/25 00:50:31;;;;;;;317.73;64.18;;;;;;;-5.01;61.52;101222.03;340595;28;865;-71
2022/01/25 00:50:42;;;;;;;318.00;65.32;;;;;;;-4.97;61.21;101220.50;338988;28;1430;-71
2022/01/25 00:51:02;;;;;;;317.92;64.92;;;;;;;-4.97;61.42;101220.50;339140;29;973;-72
2022/01/25 00:52:20;;;;;;;317.53;63.10;;;;;;;-4.95;61.12;101224.00;340575;28;1546;-71
2022/01/25 00:54:11;;;;;;;314.55;62.97;;;;;;;-4.95;61.68;101218.88;338924;29;1171;-72
2022/01/25 00:54:33;;;;;;;315.80;63.17;;;;;;;-5.00;61.38;101225.44;338101;28;1393;-73
2022/01/25 00:54:44;;;;;;;318.88;64.07;;;;;;;-5.02;62.10;101218.59;337723;28;1342;-71
2022/01/25 00:54:58;;;;;;;317.50;63.67;;;;;;;-5.03;61.55;101221.94;339087;29;956;-71
2022/01/25 00:55:09;;;;;;;315.66;62.88;;;;;;;-4.99;62.27;101222.09;337699;29;898;-72
2022/01/25 00:55:20;;;;;;;318.52;63.63;;;;;;;-4.99;62.07;101219.53;338907;28;1411;-72
2022/01/25 00:55:31;;;;;;;319.87;63.40;;;;;;;-5.01;61.65;101224.56;339232;28;1499;-72
2022/01/25 00:55:41;;;;;;;320.38;63.97;;;;;;;-5.02;61.84;101222.81;341753;28;869;-72
2022/01/25 00:55:51;;;;;;;317.37;63.30;;;;;;;-5.03;61.38;101221.94;337690;29;1282;-71
2022/01/25 00:56:02;;;;;;;317.50;63.63;;;;;;;-5.03;61.72;101221.94;337223;29;1468;-72
2022/01/25 00:56:12;;;;;;;315.97;62.77;;;;;;;-5.02;61.88;101222.81;337785;29;1445;-72
2022/01/25 00:56:24;;;;;;;315.42;62.58;;;;;;;-5.04;61.83;101215.09;340519;28;1386;-72
2022/01/25 00:56:39;;;;;;;315.67;62.90;;;;;;;-5.04;61.50;101215.09;340081;28;1346;-72
2022/01/25 00:56:50;;;;;;;315.48;62.90;;;;;;;-5.04;61.84;101222.75;339326;28;1287;-71
2022/01/25 00:57:00;;;;;;;316.30;63.27;;;;;;;-5.03;61.48;101227.06;340638;28;1500;-71
2022/01/25 00:57:11;;;;;;;316.27;63.63;;;;;;;-5.04;61.68;101220.19;337877;29;1218;-72
2022/01/25 00:57:21;;;;;;;315.00;63.80;;;;;;;-5.03;62.23;101219.41;338974;28;1452;-71
2022/01/25 00:57:32;;;;;;;314.73;63.45;;;;;;;-5.02;62.04;101228.81;339070;28;1931;-72
2022/01/25 00:57:42;;;;;;;314.97;62.90;;;;;;;-5.02;61.97;101226.25;339142;29;876;-72
2022/01/25 00:57:52;;;;;;;315.77;63.17;;;;;;;-5.03;61.39;101227.06;340336;28;781;-72
2022/01/25 00:58:03;;;;;;;313.53;62.73;;;;;;;-5.06;62.15;101221.81;338842;28;1412;-72
2022/01/25 00:58:13;;;;;;;312.55;62.85;;;;;;;-5.07;61.73;101217.50;337564;29;1496;-72
2022/01/25 00:58:23;;;;;;;312.50;62.37;;;;;;;-5.03;61.79;101227.06;338967;28;1220;-72
2022/01/25 00:58:34;;;;;;;312.30;62.72;;;;;;;-5.03;61.89;101227.06;340304;28;1420;-72
2022/01/25 00:58:44;;;;;;;313.13;62.57;;;;;;;-5.02;62.05;101228.81;341775;28;1389;-72
2022/01/25 00:58:55;;;;;;;314.70;62.97;;;;;;;-5.03;61.97;101227.06;339628;28;1320;-72
2022/01/25 00:59:07;;;;;;;315.23;63.03;;;;;;;-5.02;61.58;101220.28;340329;28;1451;-72
2022/01/25 00:59:22;;;;;;;315.05;63.28;;;;;;;-5.05;61.78;101220.13;340127;28;1384;-72
2022/01/25 00:59:32;;;;;;;316.45;63.17;;;;;;;-5.04;61.56;101222.75;340783;28;1333;-72
2022/01/25 00:59:43;;;;;;;317.60;63.90;;;;;;;-5.04;61.48;101216.78;340522;28;1381;-72
2022/01/25 00:59:53;;;;;;;315.55;63.83;;;;;;;-5.05;62.17;101223.56;338999;28;1481;-71
2022/01/25 01:00:06;;;;;;;315.53;64.37;;;;;;;-5.03;61.85;101223.63;341614;28;1335;-72
2022/01/25 01:00:17;;;;;;;314.45;63.00;;;;;;;-5.03;61.83;101221.06;339060;28;1420;-72
2022/01/25 01:00:27;;;;;;;316.13;62.58;;;;;;;-5.04;61.22;101222.75;340627;28;821;-72
2022/01/25 01:00:37;;;;;;;316.43;63.40;;;;;;;-5.03;61.31;101221.06;339002;29;1301;-72
2022/01/25 01:00:48;;;;;;;317.95;63.78;;;;;;;-5.06;61.79;101224.34;340370;28;1454;-72
2022/01/25 01:00:58;;;;;;;318.97;63.90;;;;;;;-5.04;61.25;101225.31;340319;28;1432;-72
2022/01/25 01:01:08;;;;;;;318.58;63.45;;;;;;;-5.05;61.30;101221.00;338966;29;1909;-72
2022/01/25 01:01:19;;;;;;;318.30;63.17;;;;;;;-5.02;61.66;101223.69;339389;28;1444;-72
2022/01/25 01:01:30;;;;;;;318.42;62.78;;;;;;;-5.04;61.32;101225.31;339181;28;1266;-73
2022/01/25 01:01:40;;;;;;;320.13;63.47;;;;;;;-5.03;61.32;101227.06;339205;29;1248;-71
2022/01/25 01:01:52;;;;;;;318.50;63.67;;;;;;;-5.04;61.47;101220.19;341247;28;1395;-72
2022/01/25 01:02:07;;;;;;;315.42;63.47;;;;;;;-5.03;61.67;101219.41;340197;28;1428;-72
2022/01/25 01:02:18;;;;;;;317.92;64.05;;;;;;;-5.03;61.65;101216.84;339904;28;1312;-72
2022/01/25 01:02:28;;;;;;;318.62;64.76;;;;;;;-5.04;61.21;101225.31;340479;28;1554;-72
2022/01/25 01:02:39;;;;;;;318.50;64.93;;;;;;;-5.06;61.23;101216.69;341633;28;885;-72
2022/01/25 01:02:49;;;;;;;315.00;64.13;;;;;;;-5.03;61.80;101219.41;337745;28;1578;-72
2022/01/25 01:03:00;;;;;;;315.10;64.20;;;;;;;-5.05;61.35;101208.25;338947;28;1428;-72
2022/01/25 01:03:10;;;;;;;316.83;64.15;;;;;;;-5.02;61.78;101220.28;340527;28;818;-72
2022/01/25 01:03:21;;;;;;;319.53;64.73;;;;;;;-5.02;61.68;101221.16;339800;28;1487;-72
2022/01/25 01:03:31;;;;;;;321.08;65.13;;;;;;;-5.02;61.87;101223.69;341626;28;1367;-72
2022/01/25 01:03:41;;;;;;;321.40;65.80;;;;;;;-5.03;61.68;101213.41;340262;28;1190;-72
2022/01/25 01:03:52;;;;;;;319.23;65.17;;;;;;;-5.03;61.95;101216.84;338376;28;1285;-72
2022/01/25 01:04:03;;;;;;;316.63;64.45;;;;;;;-5.02;61.58;101217.72;338677;28;1468;-72
2022/01/25 01:04:13;;;;;;;315.52;63.28;;;;;;;-5.00;61.83;101212.69;340374;28;944;-72
2022/01/25 01:04:24;;;;;;;316.05;63.35;;;;;;;-5.02;61.68;101218.59;341677;28;1321;-72
2022/01/25 01:04:34;;;;;;;315.77;62.27;;;;;;;-5.02;62.20;101221.16;341817;28;1467;-72
2022/01/25 01:04:46;;;;;;;315.30;63.13;;;;;;;-5.02;61.76;101218.59;339299;29;1542;-71
2022/01/25 01:04:57;;;;;;;314.80;63.45;;;;;;;-5.02;61.72;101216.03;340715;28;854;-72
2022/01/25 01:05:08;;;;;;;315.88;64.80;;;;;;;-5.02;61.46;101218.59;341433;28;1811;-72
2022/01/25 01:05:18;;;;;;;318.55;65.50;;;;;;;-5.02;62.06;101216.03;341908;28;1383;-72
2022/01/25 01:05:29;;;;;;;318.43;65.77;;;;;;;-5.00;61.99;101217.78;339272;29;1128;-72
2022/01/25 01:05:40;;;;;;;317.73;64.68;;;;;;;-5.00;61.65;101215.25;340545;28;1772;-72
2022/01/25 01:05:50;;;;;;;317.92;63.85;;;;;;;-4.99;61.24;101217.00;340505;28;1448;-72
2022/01/25 01:06:02;;;;;;;318.67;64.22;;;;;;;-5.00;61.59;101220.34;340682;28;1432;-72
2022/01/25 01:06:14;;;;;;;318.60;63.75;;;;;;;-5.02;61.57;101212.63;342040;28;851;-72
2022/01/25 01:06:24;;;;;;;317.10;63.72;;;;;;;-5.02;61.98;101218.59;343804;28;1004;-72
2022/01/25 01:06:35;;;;;;;317.52;63.63;;;;;;;-5.02;61.42;101218.59;342630;28;1371;-72
2022/01/25 01:06:46;;;;;;;317.88;63.35;;;;;;;-5.02;61.95;101212.63;340638;28;1269;-72
2022/01/25 01:06:57;;;;;;;317.58;64.15;;;;;;;-5.02;62.21;101218.59;340676;28;1295;-72
2022/01/25 01:07:11;;;;;;;318.40;65.35;;;;;;;-5.02;61.67;101212.63;340443;28;2022;-72
2022/01/25 01:07:21;;;;;;;320.40;66.25;;;;;;;-5.02;61.69;101218.59;341202;28;1445;-72
2022/01/25 01:07:32;;;;;;;319.90;64.97;;;;;;;-5.00;61.98;101215.25;340567;28;1321;-72
2022/01/25 01:07:43;;;;;;;319.52;64.93;;;;;;;-5.00;61.40;101215.25;336614;29;1352;-72
2022/01/25 01:07:53;;;;;;;316.42;64.15;;;;;;;-4.99;61.85;101222.09;338869;29;1417;-72
2022/01/25 01:08:04;;;;;;;314.45;63.38;;;;;;;-5.02;61.58;101218.59;341152;28;1447;-72
2022/01/25 01:08:14;;;;;;;315.10;63.50;;;;;;;-5.02;61.74;101213.50;337994;28;1515;-72
2022/01/25 01:08:25;;;;;;;316.65;63.90;;;;;;;-4.99;61.71;101217.00;340871;28;889;-73
2022/01/25 01:08:35;;;;;;;317.23;64.33;;;;;;;-4.99;61.44;101217.00;340095;28;1385;-72
2022/01/25 01:08:47;;;;;;;318.10;64.43;;;;;;;-4.99;61.59;101222.09;340512;28;1297;-72
2022/01/25 01:08:57;;;;;;;316.67;64.18;;;;;;;-5.02;61.17;101213.50;338021;29;1572;-72
2022/01/25 01:09:11;;;;;;;317.27;63.93;;;;;;;-5.03;61.43;101206.63;341974;28;1444;-72
2022/01/25 01:09:22;;;;;;;320.70;63.50;;;;;;;-5.03;61.43;101216.84;342148;28;1528;-72
2022/01/25 01:09:36;;;;;;;320.08;62.90;;;;;;;-5.00;61.47;101220.34;339479;28;1566;-72
2022/01/25 01:09:49;;;;;;;319.35;63.50;;;;;;;-5.03;61.72;101216.84;343291;28;1372;-72
2022/01/25 01:10:00;;;;;;;317.90;63.88;;;;;;;-5.03;61.19;101215.97;339349;29;1333;-73
2022/01/25 01:10:14;;;;;;;316.35;64.20;;;;;;;-5.02;61.75;101218.59;339417;29;866;-72
2022/01/25 01:10:26;;;;;;;316.65;64.32;;;;;;;-5.01;61.03;101214.38;337518;29;810;-73
2022/01/25 01:10:36;;;;;;;316.55;63.00;;;;;;;-5.00;61.55;101215.25;337820;29;1279;-72
2022/01/25 01:10:47;;;;;;;318.10;63.37;;;;;;;-5.00;61.49;101216.13;340931;28;1483;-72
2022/01/25 01:10:59;;;;;;;317.50;63.55;;;;;;;-5.02;61.76;101218.59;339411;29;908;-72
2022/01/25 01:11:14;;;;;;;318.55;63.63;;;;;;;-4.99;61.90;101217.00;343254;28;1360;-72
2022/01/25 01:11:32;;;;;;;319.00;63.22;;;;;;;-5.00;61.85;101212.69;339149;28;1278;-72
2022/01/25 01:11:53;;;;;;;318.30;62.50;;;;;;;-4.98;61.48;101218.75;340395;28;1304;-72
2022/01/25 01:12:10;;;;;;;316.70;63.38;;;;;;;-4.99;61.33;101217.00;339829;28;1365;-72
2022/01/25 01:15:10;;;;;;;316.98;63.15;;;;;;;-4.96;61.03;101217.13;339333;29;809;-72
2022/01/25 01:15:28;;;;;;;320.27;64.18;;;;;;;-4.99;61.19;101212.75;338807;28;1387;-71
2022/01/25 01:15:50;;;;;;;321.25;64.03;;;;;;;-4.98;61.60;101213.63;338675;28;1295;-73
2022/01/25 01:16:31;;;;;;;319.45;64.03;;;;;;;-4.99;62.07;101215.31;336510;29;1414;-72
2022/01/25 01:29:33;;;;;;;317.10;63.50;;;;;;;-4.94;61.44;101197.66;336489;29;1507;-72
2022/01/25 01:30:25;;;;;;;317.67;64.20;;;;;;;-4.93;61.86;101207.94;340351;28;1344;-72
2022/01/25 01:35:08;;;;;;;321.38;64.47;;;;;;;-4.97;61.21;101197.53;337259;29;1156;-72
2022/01/25 01:37:19;;;;;;;316.73;63.00;;;;;;;-4.90;61.28;101192.78;335654;29;1231;-72
2022/01/25 01:43:34;;;;;;;322.30;65.18;;;;;;;-4.90;60.61;101180.00;340600;28;945;-71
2022/01/25 01:43:46;;;;;;;318.25;63.78;;;;;;;-4.87;60.06;101186.94;339425;28;1125;-71
2022/01/25 01:43:58;;;;;;;320.00;64.72;;;;;;;-4.87;60.28;101179.28;340300;28;1760;-71
2022/01/25 01:44:18;;;;;;;321.42;64.20;;;;;;;-4.86;59.28;101178.47;337558;29;1485;-71
2022/01/25 01:44:40;;;;;;;320.08;64.46;;;;;;;-4.87;59.59;101181.84;337887;29;1454;-72
2022/01/25 01:45:27;;;;;;;316.82;62.64;;;;;;;-4.86;59.43;101181.03;340479;28;913;-71
2022/01/25 01:45:47;;;;;;;321.70;63.33;;;;;;;-4.88;60.16;101178.41;339246;29;925;-72
2022/01/25 01:46:20;;;;;;;317.45;63.08;;;;;;;-4.87;60.02;101177.59;338870;28;1495;-72
2022/01/25 01:46:38;;;;;;;318.75;63.50;;;;;;;-4.89;59.81;101183.44;340000;28;1348;-72
2022/01/25 01:47:19;;;;;;;317.38;64.85;;;;;;;-4.89;59.61;101178.34;337932;29;1009;-72
2022/01/25 01:47:42;;;;;;;318.80;64.70;;;;;;;-4.90;59.64;101176.59;336844;29;969;-71
2022/01/25 01:48:00;;;;;;;315.90;64.45;;;;;;;-4.88;59.72;101180.09;341440;28;1379;-72
2022/01/25 01:48:25;;;;;;;316.77;64.75;;;;;;;-4.89;60.23;101178.34;340713;28;965;-71
2022/01/25 01:48:45;;;;;;;317.38;65.65;;;;;;;-4.88;60.34;101180.09;339187;28;1286;-71
2022/01/25 01:49:01;;;;;;;317.02;65.60;;;;;;;-4.90;59.83;101176.59;337843;29;891;-71
2022/01/25 01:49:11;;;;;;;313.77;64.22;;;;;;;-4.89;60.38;101174.09;340633;28;877;-71
2022/01/25 01:49:22;;;;;;;312.85;64.05;;;;;;;-4.89;59.94;101175.78;340398;28;1460;-72
2022/01/25 01:49:40;;;;;;;315.13;64.78;;;;;;;-4.90;59.64;101176.59;338904;28;1217;-72
2022/01/25 01:49:50;;;;;;;316.00;65.00;;;;;;;-4.92;59.69;101173.97;337861;29;1551;-71
2022/01/25 01:50:02;;;;;;;314.70;64.20;;;;;;;-4.93;60.15;101177.31;340905;28;1258;-72
2022/01/25 01:50:16;;;;;;;314.13;64.15;;;;;;;-4.92;60.68;101171.41;340307;28;1377;-72
2022/01/25 01:50:29;;;;;;;315.55;64.57;;;;;;;-4.93;60.56;101171.34;342032;28;849;-72
2022/01/25 01:50:39;;;;;;;315.58;64.18;;;;;;;-4.89;60.12;101174.09;341865;28;999;-72
2022/01/25 01:50:50;;;;;;;314.02;63.90;;;;;;;-4.89;59.90;101173.22;341823;28;1479;-71
2022/01/25 01:51:42;;;;;;;318.65;65.25;;;;;;;-4.90;60.18;101171.47;340478;28;1111;-72
2022/01/25 01:51:48;;;;;;;315.63;64.03;;;;;;;-4.90;59.86;101168.94;337554;29;1396;-71
2022/01/25 01:51:52;;;;;;;317.36;64.96;;;;;;;-4.87;59.41;101176.72;341737;28;1483;-71
2022/01/25 01:52:03;;;;;;;315.87;64.60;;;;;;;-4.87;60.33;101175.06;340276;28;1617;-71
2022/01/25 01:52:13;;;;;;;315.40;63.90;;;;;;;-4.89;60.31;101174.09;341518;28;1368;-71
2022/01/25 01:52:23;;;;;;;316.23;64.50;;;;;;;-4.89;59.57;101173.22;342110;28;805;-72
2022/01/25 01:52:34;;;;;;;318.63;64.53;;;;;;;-4.89;59.59;101173.22;341812;28;1506;-71
2022/01/25 01:52:44;;;;;;;319.80;64.97;;;;;;;-4.88;60.22;101175.84;341309;28;1427;-72
2022/01/25 01:52:55;;;;;;;319.20;64.43;;;;;;;-4.87;60.32;101176.72;339118;29;1098;-72
2022/01/25 01:53:06;;;;;;;316.35;64.40;;;;;;;-4.86;59.94;101175.94;336433;29;1596;-71
2022/01/25 01:53:17;;;;;;;315.10;64.85;;;;;;;-4.88;60.33;101173.31;337770;29;1416;-71
2022/01/25 01:53:27;;;;;;;315.30;65.30;;;;;;;-4.85;60.04;101181.09;340484;28;1372;-71
2022/01/25 01:53:38;;;;;;;314.38;64.28;;;;;;;-4.85;60.59;101177.69;338457;29;1371;-71
2022/01/25 01:53:48;;;;;;;315.75;64.03;;;;;;;-4.86;59.66;101173.38;338420;28;1314;-71
2022/01/25 01:54:04;;;;;;;316.50;63.93;;;;;;;-4.87;60.03;101169.94;337925;29;1404;-72
2022/01/25 01:54:14;;;;;;;318.95;64.40;;;;;;;-4.86;60.35;101168.28;340144;28;1269;-72
2022/01/25 01:54:25;;;;;;;318.07;64.03;;;;;;;-4.86;60.38;101168.28;341617;28;1096;-72
2022/01/25 01:54:35;;;;;;;317.65;64.03;;;;;;;-4.87;60.33;101171.63;342003;28;1252;-71
2022/01/25 01:54:45;;;;;;;315.70;64.27;;;;;;;-4.87;60.33;101166.53;342181;28;1388;-72
2022/01/25 01:54:56;;;;;;;315.17;65.13;;;;;;;-4.86;60.06;101178.47;342963;28;1238;-72
2022/01/25 01:55:07;;;;;;;315.23;65.30;;;;;;;-4.85;59.71;101175.13;341655;28;1431;-72
2022/01/25 01:55:17;;;;;;;315.55;65.03;;;;;;;-4.86;60.22;101175.94;340982;28;1455;-71
2022/01/25 01:55:28;;;;;;;316.23;64.57;;;;;;;-4.87;60.31;101172.50;341543;28;1407;-72
2022/01/25 01:55:38;;;;;;;317.52;64.45;;;;;;;-4.85;60.46;101170.03;340435;28;1336;-71
2022/01/25 01:55:49;;;;;;;321.27;65.33;;;;;;;-4.86;59.53;101175.94;340070;28;1422;-71
2022/01/25 01:55:59;;;;;;;322.10;64.82;;;;;;;-4.84;60.35;101171.78;340154;28;1487;-71
2022/01/25 01:56:10;;;;;;;321.20;65.83;;;;;;;-4.85;60.20;101170.03;341380;28;1186;-71
2022/01/25 01:56:20;;;;;;;322.10;65.60;;;;;;;-4.85;60.51;101175.13;339939;28;1468;-71
2022/01/25 01:56:30;;;;;;;323.10;66.67;;;;;;;-4.86;60.34;101173.38;338742;28;1602;-71
2022/01/25 01:56:42;;;;;;;320.42;66.10;;;;;;;-4.85;60.03;101175.13;340573;28;1245;-72